createdAt,value
2023-03-26T00:02:12.288Z,20.13
2023-03-26T00:04:41.767Z,22.50
2023-03-26T00:07:09.509Z,20.40
2023-03-26T00:09:36.141Z,25.33
2023-03-26T00:12:02.355Z,20.77
2023-03-26T00:14:29.205Z,26.43
2023-03-26T00:16:55.534Z,23.37
2023-03-26T00:19:22.018Z,25.27
2023-03-26T00:21:50.893Z,23.87
2023-03-26T00:24:17.049Z,21.93
2023-03-26T00:26:44.270Z,20.17
2023-03-26T00:29:11.240Z,26.97
2023-03-26T00:31:38.987Z,29.43
2023-03-26T00:34:05.137Z,32.70
2023-03-26T00:36:34.500Z,22.80
2023-03-26T00:39:04.351Z,24.17
2023-03-26T00:41:31.236Z,22.87
2023-03-26T00:43:59.043Z,30.60
2023-03-26T00:46:26.628Z,28.80
2023-03-26T00:48:52.876Z,23.30
2023-03-26T00:51:20.346Z,31.83
2023-03-26T00:53:47.742Z,30.40
2023-03-26T00:56:14.790Z,25.67
2023-03-26T00:58:41.432Z,18.23
2023-03-26T01:01:10.222Z,19.20
2023-03-26T01:03:37.998Z,24.40
2023-03-26T01:06:07.285Z,24.40
2023-03-26T01:08:35.650Z,17.63
2023-03-26T01:11:06.463Z,23.17
2023-03-26T01:13:35.791Z,22.53
2023-03-26T01:16:03.412Z,26.87
2023-03-26T01:18:33.130Z,24.73
2023-03-26T01:21:04.603Z,19.60
2023-03-26T01:23:38.669Z,21.10
2023-03-26T01:26:10.397Z,20.73
2023-03-26T01:28:40.442Z,23.43
2023-03-26T01:31:10.861Z,29.33
2023-03-26T01:33:43.046Z,21.00
2023-03-26T01:36:16.915Z,22.43
2023-03-26T01:38:48.444Z,26.97
2023-03-26T01:41:19.419Z,24.63
2023-03-26T01:43:47.493Z,29.20
2023-03-26T01:46:15.205Z,39.97
2023-03-26T01:48:42.778Z,26.27
2023-03-26T01:51:10.080Z,26.90
2023-03-26T01:53:38.799Z,27.97
2023-03-26T01:56:11.920Z,26.30
2023-03-26T01:58:45.853Z,30.23
2023-03-26T02:01:18.851Z,20.80
2023-03-26T02:03:50.915Z,19.80
2023-03-26T02:06:20.679Z,29.87
2023-03-26T02:08:51.501Z,26.37
2023-03-26T02:11:17.783Z,21.00
2023-03-26T02:13:45.913Z,27.83
2023-03-26T02:16:15.396Z,24.27
2023-03-26T02:18:41.878Z,22.57
2023-03-26T02:21:10.324Z,31.13
2023-03-26T02:23:37.690Z,25.40
2023-03-26T02:26:06.006Z,22.27
2023-03-26T02:28:32.361Z,23.93
2023-03-26T02:31:00.843Z,25.83
2023-03-26T02:33:27.309Z,18.23
2023-03-26T02:35:53.959Z,22.90
2023-03-26T02:38:20.406Z,21.70
2023-03-26T02:40:46.867Z,20.77
2023-03-26T02:43:12.978Z,29.63
2023-03-26T02:45:39.147Z,35.13
2023-03-26T02:48:07.368Z,24.60
2023-03-26T02:50:35.982Z,23.53
2023-03-26T02:53:02.272Z,24.40
2023-03-26T02:55:28.453Z,22.80
2023-03-26T02:57:54.738Z,26.80
2023-03-26T03:00:21.910Z,20.40
2023-03-26T03:02:48.545Z,17.17
2023-03-26T03:05:17.261Z,16.13
2023-03-26T03:07:45.655Z,30.50
2023-03-26T03:10:12.978Z,21.17
2023-03-26T03:12:39.207Z,18.13
2023-03-26T03:15:06.282Z,22.63
2023-03-26T03:17:32.473Z,20.73
2023-03-26T03:19:58.776Z,22.07
2023-03-26T03:22:25.529Z,18.90
2023-03-26T03:24:51.716Z,23.80
2023-03-26T03:27:19.440Z,21.43
2023-03-26T03:29:45.780Z,19.80
2023-03-26T03:32:12.053Z,25.47
2023-03-26T03:34:38.555Z,21.10
2023-03-26T03:37:04.780Z,25.37
2023-03-26T03:39:31.712Z,22.70
2023-03-26T03:41:57.836Z,21.87
2023-03-26T03:44:24.144Z,19.47
2023-03-26T03:46:53.229Z,25.40
2023-03-26T03:49:19.417Z,18.80
2023-03-26T03:51:45.561Z,33.80
2023-03-26T03:54:12.478Z,24.00
2023-03-26T03:56:39.344Z,18.97
2023-03-26T03:59:05.633Z,23.63
2023-03-26T04:01:32.079Z,23.17
2023-03-26T04:03:58.382Z,27.03
2023-03-26T04:06:24.691Z,25.43
2023-03-26T04:08:50.984Z,24.10
2023-03-26T04:11:17.392Z,22.97
2023-03-26T04:13:44.461Z,20.53
2023-03-26T04:16:11.111Z,12.50
2023-03-26T04:18:37.546Z,19.83
2023-03-26T04:21:04.595Z,24.13
2023-03-26T04:23:31.369Z,19.53
2023-03-26T04:25:58.759Z,18.00
2023-03-26T04:28:29.558Z,31.43
2023-03-26T04:30:59.866Z,19.23
2023-03-26T04:33:27.608Z,20.60
2023-03-26T04:35:54.293Z,18.53
2023-03-26T04:38:20.631Z,22.20
2023-03-26T04:40:46.766Z,26.10
2023-03-26T04:43:15.563Z,20.17
2023-03-26T04:45:41.769Z,21.57
2023-03-26T04:48:13.491Z,28.57
2023-03-26T04:50:40.905Z,18.00
2023-03-26T04:53:07.699Z,29.30
2023-03-26T04:55:38.207Z,23.57
2023-03-26T04:58:04.667Z,14.43
2023-03-26T05:00:31.063Z,18.00
2023-03-26T05:02:58.652Z,9.67
2023-03-26T05:05:26.462Z,21.20
2023-03-26T05:07:52.748Z,21.20
2023-03-26T05:10:19.818Z,10.93
2023-03-26T05:12:46.053Z,27.23
2023-03-26T05:15:13.090Z,25.60
2023-03-26T05:17:40.681Z,18.50
2023-03-26T05:20:10.790Z,21.40
2023-03-26T05:22:38.258Z,18.83
2023-03-26T05:25:05.379Z,20.77
2023-03-26T05:27:32.881Z,22.90
2023-03-26T05:30:00.436Z,16.43
2023-03-26T05:32:26.587Z,29.97
2023-03-26T05:34:52.896Z,20.97
2023-03-26T05:37:23.697Z,23.77
2023-03-26T05:39:53.290Z,18.60
2023-03-26T05:42:19.469Z,15.47
2023-03-26T05:44:45.579Z,15.57
2023-03-26T05:47:11.721Z,24.67
2023-03-26T05:49:37.978Z,14.80
2023-03-26T05:52:04.826Z,24.70
2023-03-26T05:54:31.101Z,20.43
2023-03-26T05:56:58.455Z,15.00
2023-03-26T05:59:24.805Z,16.13
2023-03-26T06:01:53.933Z,17.13
2023-03-26T06:04:20.471Z,15.53
2023-03-26T06:06:46.825Z,19.57
2023-03-26T06:09:13.889Z,20.33
2023-03-26T06:11:40.967Z,25.23
2023-03-26T06:14:07.762Z,21.57
2023-03-26T06:16:34.207Z,15.43
2023-03-26T06:19:00.684Z,26.40
2023-03-26T06:21:27.530Z,25.93
2023-03-26T06:23:53.833Z,19.40
2023-03-26T06:26:20.645Z,16.60
2023-03-26T06:28:46.897Z,21.87
2023-03-26T06:31:13.741Z,19.13
2023-03-26T06:33:39.958Z,13.30
2023-03-26T06:36:06.741Z,17.47
2023-03-26T06:38:32.934Z,14.07
2023-03-26T06:41:01.942Z,20.13
2023-03-26T06:43:28.116Z,13.97
2023-03-26T06:45:54.247Z,13.53
2023-03-26T06:48:21.142Z,17.87
2023-03-26T06:50:47.278Z,18.07
2023-03-26T06:53:13.467Z,14.33
2023-03-26T06:55:39.671Z,20.70
2023-03-26T06:58:06.117Z,17.83
2023-03-26T07:00:32.279Z,18.40
2023-03-26T07:02:58.550Z,22.63
2023-03-26T07:05:25.617Z,15.17
2023-03-26T07:07:51.756Z,22.67
2023-03-26T07:10:18.076Z,17.40
2023-03-26T07:12:44.248Z,14.60
2023-03-26T07:15:10.790Z,18.63
2023-03-26T07:17:37.154Z,18.80
2023-03-26T07:20:04.166Z,19.87
2023-03-26T07:22:31.707Z,13.07
2023-03-26T07:24:58.432Z,15.97
2023-03-26T07:27:36.325Z,19.63
2023-03-26T07:30:05.726Z,17.50
2023-03-26T07:32:35.845Z,12.87
2023-03-26T07:35:06.472Z,10.93
2023-03-26T07:37:41.524Z,18.43
2023-03-26T07:40:18.063Z,18.93
2023-03-26T07:42:52.921Z,12.57
2023-03-26T07:45:22.194Z,15.07
2023-03-26T07:47:49.018Z,16.07
2023-03-26T07:50:18.177Z,15.40
2023-03-26T07:52:46.191Z,14.43
2023-03-26T07:55:13.788Z,15.63
2023-03-26T07:57:47.053Z,16.00
2023-03-26T08:00:17.145Z,21.97
2023-03-26T08:03:11.936Z,10.50
2023-03-26T08:05:43.024Z,12.90
2023-03-26T08:08:15.863Z,9.50
2023-03-26T08:11:07.519Z,9.07
2023-03-26T08:13:38.817Z,19.53
2023-03-26T08:16:09.311Z,16.10
2023-03-26T08:18:43.904Z,11.50
2023-03-26T08:21:13.529Z,13.83
2023-03-26T08:23:51.337Z,13.40
2023-03-26T08:26:26.710Z,12.20
2023-03-26T08:29:03.281Z,11.93
2023-03-26T08:31:33.401Z,18.73
2023-03-26T08:34:00.198Z,14.53
2023-03-26T08:36:27.389Z,14.90
2023-03-26T08:38:54.623Z,17.27
2023-03-26T08:41:50.016Z,15.53
2023-03-26T08:44:40.821Z,15.27
2023-03-26T08:47:29.798Z,13.47
2023-03-26T08:50:18.222Z,14.80
2023-03-26T08:53:26.097Z,14.53
2023-03-26T08:55:55.079Z,12.90
2023-03-26T08:58:59.494Z,10.57
2023-03-26T09:01:42.033Z,11.97
2023-03-26T09:04:46.450Z,15.73
2023-03-26T09:07:46.217Z,9.37
2023-03-26T09:10:36.507Z,11.70
2023-03-26T09:13:36.921Z,7.83
2023-03-26T09:16:27.291Z,10.47
2023-03-26T09:19:36.687Z,11.37
2023-03-26T09:22:36.119Z,9.17
2023-03-26T09:25:13.091Z,57.00
2023-03-26T09:27:40.414Z,11.73
2023-03-26T09:30:57.289Z,9.70
2023-03-26T09:33:55.841Z,8.57
2023-03-26T09:36:49.708Z,6.63
2023-03-26T09:39:19.571Z,6.00
2023-03-26T09:41:52.787Z,7.23
2023-03-26T09:44:38.807Z,4.27
2023-03-26T09:47:34.074Z,5.53
2023-03-26T09:50:13.086Z,3.50
2023-03-26T09:52:49.844Z,2.77
2023-03-26T09:55:50.171Z,5.47
2023-03-26T09:58:41.082Z,4.20
2023-03-26T10:01:11.859Z,3.63
2023-03-26T10:03:47.835Z,4.13
2023-03-26T10:06:34.734Z,4.17
2023-03-26T10:09:13.499Z,3.80
2023-03-26T10:11:58.187Z,3.07
2023-03-26T10:14:27.934Z,2.93
2023-03-26T10:17:02.487Z,6.10
2023-03-26T10:19:45.510Z,3.47
2023-03-26T10:22:32.144Z,4.53
2023-03-26T10:25:41.261Z,4.53
2023-03-26T10:28:24.431Z,2.93
2023-03-26T10:31:15.129Z,1.40
2023-03-26T10:33:51.513Z,6.93
2023-03-26T10:36:30.427Z,5.73
2023-03-26T10:39:35.986Z,1.83
2023-03-26T10:42:17.154Z,3.73
2023-03-26T10:44:57.168Z,4.80
2023-03-26T10:47:46.655Z,2.27
2023-03-26T10:50:26.307Z,1.70
2023-03-26T10:52:56.424Z,2.67
2023-03-26T10:55:26.803Z,1.97
2023-03-26T10:57:55.406Z,7.50
2023-03-26T11:00:24.606Z,3.40
2023-03-26T11:03:03.652Z,3.03
2023-03-26T11:05:48.607Z,0.90
2023-03-26T11:08:21.047Z,2.23
2023-03-26T11:11:02.425Z,2.13
2023-03-26T11:13:38.622Z,1.50
2023-03-26T11:16:09.508Z,5.13
2023-03-26T11:18:39.976Z,1.27
2023-03-26T11:21:19.165Z,1.43
2023-03-26T11:24:04.464Z,2.30
2023-03-26T11:26:39.349Z,1.27
2023-03-26T11:29:32.868Z,1.20
2023-03-26T11:32:03.289Z,2.77
2023-03-26T11:34:34.868Z,3.77
2023-03-26T11:37:02.776Z,2.93
2023-03-26T11:39:36.952Z,2.27
2023-03-26T11:42:06.037Z,1.33
2023-03-26T11:44:35.612Z,0.87
2023-03-26T11:47:05.285Z,1.17
2023-03-26T11:49:31.923Z,1.10
2023-03-26T11:52:00.154Z,1.70
2023-03-26T11:54:27.115Z,0.80
2023-03-26T11:57:05.852Z,1.43
2023-03-26T11:59:45.243Z,0.70
2023-03-26T12:02:33.212Z,1.00
2023-03-26T12:05:15.500Z,1.00
2023-03-26T12:07:46.285Z,2.70
2023-03-26T12:10:22.529Z,2.53
2023-03-26T12:12:52.179Z,1.30
2023-03-26T12:15:20.100Z,1.63
2023-03-26T12:17:46.970Z,2.03
2023-03-26T12:20:35.209Z,1.03
2023-03-26T12:23:04.199Z,1.13
2023-03-26T12:25:31.585Z,0.70
2023-03-26T12:28:01.762Z,2.67
2023-03-26T12:30:30.321Z,1.90
2023-03-26T12:32:59.413Z,0.70
2023-03-26T12:35:28.470Z,3.07
2023-03-26T12:37:57.493Z,1.33
2023-03-26T12:40:29.847Z,1.40
2023-03-26T12:44:55.071Z,1.33
2023-03-26T12:45:44.350Z,0.80
2023-03-26T12:48:12.945Z,1.40
2023-03-26T12:50:50.318Z,0.80
2023-03-26T12:53:37.734Z,1.80
2023-03-26T12:56:19.100Z,1.23
2023-03-26T12:59:10.985Z,0.73
2023-03-26T13:01:46.990Z,1.13
2023-03-26T13:04:33.470Z,4.40
2023-03-26T13:07:05.586Z,1.50
2023-03-26T13:09:53.243Z,2.10
2023-03-26T13:12:29.596Z,2.57
2023-03-26T13:15:19.937Z,0.90
2023-03-26T13:17:57.050Z,0.70
2023-03-26T13:20:29.218Z,0.83
2023-03-26T13:23:02.044Z,1.33
2023-03-26T13:25:34.466Z,2.80
2023-03-26T13:28:10.355Z,1.00
2023-03-26T13:30:38.914Z,0.97
2023-03-26T13:33:23.091Z,1.60
2023-03-26T13:36:00.659Z,0.90
2023-03-26T13:38:42.274Z,1.03
2023-03-26T13:41:31.490Z,4.90
2023-03-26T13:44:03.540Z,0.83
2023-03-26T13:46:33.585Z,1.10
2023-03-26T13:49:03.118Z,1.27
2023-03-26T13:51:34.953Z,2.87
2023-03-26T13:54:07.388Z,0.80
2023-03-26T13:56:36.513Z,1.00
2023-03-26T13:59:06.897Z,2.53
2023-03-26T14:01:40.288Z,2.50
2023-03-26T14:04:15.286Z,1.93
2023-03-26T14:06:45.863Z,1.50
2023-03-26T14:09:16.540Z,2.73
2023-03-26T14:11:54.541Z,1.50
2023-03-26T14:14:30.817Z,1.00
2023-03-26T14:17:00.386Z,1.03
2023-03-26T14:19:52.277Z,1.27
2023-03-26T14:22:27.217Z,0.93
2023-03-26T14:25:10.885Z,0.60
2023-03-26T14:27:43.311Z,0.60
2023-03-26T14:30:27.907Z,0.80
2023-03-26T14:33:03.524Z,1.53
2023-03-26T14:35:36.861Z,2.20
2023-03-26T14:38:19.024Z,0.70
2023-03-26T14:40:53.939Z,0.73
2023-03-26T14:43:41.038Z,0.70
2023-03-26T14:46:13.415Z,0.20
2023-03-26T14:49:00.670Z,0.30
2023-03-26T14:51:33.632Z,0.40
2023-03-26T14:54:03.460Z,1.13
2023-03-26T14:56:48.347Z,0.87
2023-03-26T14:59:38.290Z,0.70
2023-03-26T15:02:42.710Z,0.50
2023-03-26T15:05:45.688Z,0.90
2023-03-26T15:08:48.113Z,0.90
2023-03-26T15:11:22.121Z,0.93
2023-03-26T15:13:59.632Z,0.70
2023-03-26T15:16:59.320Z,0.93
2023-03-26T15:19:56.318Z,0.90
2023-03-26T15:23:02.179Z,1.70
2023-03-26T15:26:15.765Z,1.03
2023-03-26T15:29:20.871Z,0.77
2023-03-26T15:32:21.611Z,1.27
2023-03-26T15:35:20.145Z,2.23
2023-03-26T15:38:34.378Z,1.37
2023-03-26T15:41:10.542Z,1.43
2023-03-26T15:44:24.786Z,4.67
2023-03-26T15:46:56.612Z,1.10
2023-03-26T15:49:35.068Z,1.50
2023-03-26T15:52:07.884Z,3.50
2023-03-26T15:54:40.508Z,1.90
2023-03-26T15:57:16.132Z,1.30
2023-03-26T15:59:53.434Z,1.50
2023-03-26T16:02:27.286Z,1.33
2023-03-26T16:04:54.867Z,1.23
2023-03-26T16:07:38.546Z,2.67
2023-03-26T16:10:27.483Z,1.70
2023-03-26T16:13:11.246Z,2.27
2023-03-26T16:15:38.089Z,3.60
2023-03-26T16:18:27.025Z,2.23
2023-03-26T16:20:55.136Z,2.13
2023-03-26T16:23:27.835Z,1.93
2023-03-26T16:25:57.644Z,1.90
2023-03-26T16:29:05.422Z,1.87
2023-03-26T16:31:38.150Z,2.23
2023-03-26T16:34:38.502Z,4.13
2023-03-26T16:37:08.093Z,4.20
2023-03-26T16:39:39.363Z,4.93
2023-03-26T16:42:26.997Z,3.53
2023-03-26T16:45:05.331Z,3.80
2023-03-26T16:47:37.905Z,4.60
2023-03-26T16:50:13.545Z,3.40
2023-03-26T16:52:44.642Z,3.03
2023-03-26T16:55:19.946Z,3.47
2023-03-26T16:57:52.854Z,4.63
2023-03-26T17:00:34.386Z,4.60
2023-03-26T17:03:12.249Z,5.77
2023-03-26T17:05:45.203Z,5.53
2023-03-26T17:08:16.417Z,9.43
2023-03-26T17:10:53.554Z,13.73
2023-03-26T17:13:22.619Z,16.27
2023-03-26T17:16:00.349Z,21.60
2023-03-26T17:18:33.429Z,24.73
2023-03-26T17:21:02.605Z,23.37
2023-03-26T17:23:40.969Z,19.40
2023-03-26T17:26:11.104Z,24.67
2023-03-26T17:28:49.377Z,29.00
2023-03-26T17:31:23.798Z,27.50
2023-03-26T17:33:50.239Z,24.73
2023-03-26T17:36:30.481Z,28.47
2023-03-26T17:39:04.218Z,28.77
2023-03-26T17:41:54.633Z,32.00
2023-03-26T17:44:37.988Z,27.30
2023-03-26T17:47:06.784Z,25.83
2023-03-26T17:49:33.346Z,24.53
2023-03-26T17:52:02.704Z,28.20
2023-03-26T17:54:32.671Z,20.73
2023-03-26T17:57:03.002Z,22.40
2023-03-26T17:59:31.541Z,25.97
2023-03-26T18:02:00.089Z,22.60
2023-03-26T18:04:30.932Z,20.03
2023-03-26T18:07:31.879Z,16.77
2023-03-26T18:10:19.545Z,20.83
2023-03-26T18:13:01.971Z,22.83
2023-03-26T18:15:33.336Z,25.17
2023-03-26T18:18:09.156Z,17.33
2023-03-26T18:20:36.742Z,22.67
2023-03-26T18:23:09.047Z,29.20
2023-03-26T18:25:35.721Z,21.37
2023-03-26T18:28:02.276Z,18.13
2023-03-26T18:30:28.866Z,26.73
2023-03-26T18:33:00.909Z,13.00
2023-03-26T18:35:39.656Z,17.13
2023-03-26T18:38:06.693Z,20.93
2023-03-26T18:40:39.167Z,14.90
2023-03-26T18:43:05.654Z,15.63
2023-03-26T18:45:33.048Z,22.40
2023-03-26T18:48:01.677Z,17.77
2023-03-26T18:50:30.880Z,17.90
2023-03-26T18:52:59.531Z,20.83
2023-03-26T18:55:27.848Z,18.87
2023-03-26T18:57:54.044Z,9.90
2023-03-26T19:00:22.524Z,17.70
2023-03-26T19:02:51.260Z,15.97
2023-03-26T19:05:18.921Z,15.37
2023-03-26T19:07:45.630Z,20.60
2023-03-26T19:10:19.300Z,17.23
2023-03-26T19:12:54.386Z,18.53
2023-03-26T19:15:21.302Z,17.37
2023-03-26T19:17:50.576Z,16.37
2023-03-26T19:20:27.872Z,16.60
2023-03-26T19:22:55.105Z,12.20
2023-03-26T19:25:23.615Z,10.17
2023-03-26T19:27:51.008Z,14.97
2023-03-26T19:30:27.614Z,14.53
2023-03-26T19:32:54.923Z,14.63
2023-03-26T19:35:22.655Z,15.80
2023-03-26T19:37:49.882Z,11.37
2023-03-26T19:40:19.554Z,13.33
2023-03-26T19:42:46.645Z,21.20
2023-03-26T19:45:15.895Z,23.70
2023-03-26T19:47:48.436Z,13.73
2023-03-26T19:50:24.010Z,12.53
2023-03-26T19:53:15.515Z,14.33
2023-03-26T19:55:52.109Z,11.67
2023-03-26T19:58:18.892Z,12.33
2023-03-26T20:00:45.652Z,15.93
2023-03-26T20:03:12.098Z,17.47
2023-03-26T20:05:38.491Z,13.63
2023-03-26T20:08:12.605Z,11.43
2023-03-26T20:10:38.800Z,16.00
2023-03-26T20:13:12.788Z,13.80
2023-03-26T20:15:39.906Z,10.90
2023-03-26T20:18:07.774Z,11.80
2023-03-26T20:20:34.932Z,11.23
2023-03-26T20:23:01.490Z,13.03
2023-03-26T20:25:31.159Z,9.83
2023-03-26T20:27:58.291Z,11.27
2023-03-26T20:30:37.020Z,15.00
2023-03-26T20:33:12.440Z,8.23
2023-03-26T20:35:40.634Z,15.67
2023-03-26T20:38:08.581Z,15.67
2023-03-26T20:40:35.255Z,13.30
2023-03-26T20:43:01.374Z,16.90
2023-03-26T20:45:27.616Z,11.23
2023-03-26T20:47:53.954Z,13.90
2023-03-26T20:50:22.447Z,10.67
2023-03-26T20:52:49.785Z,14.50
2023-03-26T20:55:20.558Z,12.77
2023-03-26T20:57:47.001Z,10.53
2023-03-26T21:00:16.283Z,7.47
2023-03-26T21:02:43.386Z,11.23
2023-03-26T21:05:13.993Z,7.00
2023-03-26T21:07:41.391Z,11.53
2023-03-26T21:10:10.756Z,15.83
2023-03-26T21:12:41.587Z,10.90
2023-03-26T21:15:16.818Z,10.47
2023-03-26T21:17:47.909Z,11.77
2023-03-26T21:20:15.997Z,15.33
2023-03-26T21:22:46.020Z,14.53
2023-03-26T21:25:20.836Z,11.50
2023-03-26T21:27:54.630Z,17.33
2023-03-26T21:30:21.428Z,8.40
2023-03-26T21:32:48.247Z,14.70
2023-03-26T21:35:15.458Z,7.27
2023-03-26T21:37:43.385Z,9.20
2023-03-26T21:40:15.736Z,15.77
2023-03-26T21:42:43.808Z,16.90
2023-03-26T21:45:11.294Z,13.27
2023-03-26T21:47:38.411Z,8.37
2023-03-26T21:50:06.431Z,6.70
2023-03-26T21:52:33.220Z,10.80
2023-03-26T21:55:00.708Z,9.77
2023-03-26T21:57:41.926Z,12.00
2023-03-26T22:00:13.506Z,11.80
2023-03-26T22:02:44.760Z,22.77
2023-03-26T22:05:13.306Z,16.13
2023-03-26T22:07:50.133Z,13.23
2023-03-26T22:10:16.483Z,8.63
2023-03-26T22:12:42.667Z,9.07
2023-03-26T22:15:12.949Z,11.03
2023-03-26T22:17:39.171Z,15.30
2023-03-26T22:20:09.903Z,10.97
2023-03-26T22:22:36.055Z,14.63
2023-03-26T22:25:04.740Z,11.73
2023-03-26T22:27:31.000Z,14.47
2023-03-26T22:29:57.137Z,17.43
2023-03-26T22:32:24.175Z,10.23
2023-03-26T22:34:51.317Z,15.30
2023-03-26T22:37:17.485Z,7.80
2023-03-26T22:39:43.688Z,6.67
2023-03-26T22:42:09.921Z,14.90
2023-03-26T22:44:36.325Z,19.87
2023-03-26T22:47:03.923Z,12.90
2023-03-26T22:49:31.538Z,10.27
2023-03-26T22:51:57.817Z,15.03
2023-03-26T22:54:24.134Z,9.47
2023-03-26T22:56:51.580Z,14.60
2023-03-26T22:59:17.883Z,12.17
2023-03-26T23:01:44.788Z,15.90
2023-03-26T23:04:11.403Z,10.27
2023-03-26T23:06:38.358Z,13.73
2023-03-26T23:09:06.223Z,11.70
2023-03-26T23:11:33.942Z,14.93
2023-03-26T23:14:00.512Z,19.17
2023-03-26T23:16:27.124Z,14.13
2023-03-26T23:18:53.375Z,14.97
2023-03-26T23:21:20.968Z,11.57
2023-03-26T23:23:48.379Z,17.03
2023-03-26T23:26:15.566Z,13.47
2023-03-26T23:28:42.662Z,14.93
2023-03-26T23:31:11.242Z,12.27
2023-03-26T23:33:44.730Z,13.27
2023-03-26T23:36:11.508Z,19.47
2023-03-26T23:38:43.604Z,21.47
2023-03-26T23:41:14.179Z,17.33
2023-03-26T23:43:40.869Z,10.40
2023-03-26T23:46:22.675Z,13.83
2023-03-26T23:48:50.540Z,13.40
2023-03-26T23:51:19.040Z,12.40
2023-03-26T23:53:45.805Z,17.93
2023-03-26T23:56:12.981Z,15.80
2023-03-26T23:58:39.617Z,21.73
